Time;durP1;ratioP1;P1;durP2;ratioP2;P2;SDS_P1;SDS_P2;PMS_P1;PMS_P2;Temp;Humidity;BMP_temperature;BMP_pressure;BME280_temperature;BME280_humidity;BME280_pressure;Samples;Min_cycle;Max_cycle;Signal;HPM_P1;HPM_P2
2023/07/27 00:00:56;;;;;;;;;;;25.00;58.60;;;;;;5075616;28;19913;-37
2023/07/27 00:03:21;;;;;;;;;;;25.00;58.60;;;;;;5079498;28;19912;-36
2023/07/27 00:05:47;;;;;;;;;;;25.00;59.00;;;;;;5081610;28;20101;-37
2023/07/27 00:08:13;;;;;;;;;;;25.00;58.60;;;;;;5079149;28;19919;-36
2023/07/27 00:10:40;;;;;;;;;;;25.00;58.50;;;;;;5079779;28;19928;-36
2023/07/27 00:13:06;;;;;;;;;;;24.90;59.00;;;;;;5081666;28;19912;-36
2023/07/27 00:15:32;;;;;;;;;;;24.90;58.50;;;;;;5074023;28;19909;-36
2023/07/27 00:17:58;;;;;;;;;;;24.90;58.50;;;;;;5082274;28;19983;-36
2023/07/27 00:20:24;;;;;;;;;;;24.90;58.10;;;;;;5081190;28;20037;-36
2023/07/27 00:22:49;;;;;;;;;;;24.80;58.20;;;;;;5081714;28;19919;-36
2023/07/27 00:25:15;;;;;;;;;;;24.80;58.50;;;;;;5080811;28;20432;-36
2023/07/27 00:27:41;;;;;;;;;;;24.80;58.30;;;;;;5079108;28;19912;-36
2023/07/27 00:30:07;;;;;;;;;;;24.80;58.10;;;;;;5080848;28;19913;-36
2023/07/27 00:32:33;;;;;;;;;;;24.80;58.20;;;;;;5080244;28;19964;-36
2023/07/27 00:34:59;;;;;;;;;;;24.80;58.60;;;;;;5081509;28;19951;-35
2023/07/27 00:37:25;;;;;;;;;;;24.70;58.80;;;;;;5080792;28;19908;-35
2023/07/27 00:39:51;;;;;;;;;;;24.70;58.50;;;;;;5082271;28;19994;-36
2023/07/27 00:42:17;;;;;;;;;;;24.70;58.40;;;;;;5081872;28;19912;-36
2023/07/27 00:44:43;;;;;;;;;;;24.70;58.40;;;;;;5077948;28;19967;-36
2023/07/27 00:47:08;;;;;;;;;;;24.60;58.40;;;;;;5082041;28;19980;-35
2023/07/27 00:49:34;;;;;;;;;;;24.60;58.20;;;;;;5080899;28;19976;-36
2023/07/27 00:52:05;;;;;;;;;;;24.60;58.10;;;;;;5080800;28;19920;-35
2023/07/27 00:54:32;;;;;;;;;;;24.60;58.20;;;;;;5062708;28;19920;-35
2023/07/27 00:56:58;;;;;;;;;;;24.60;58.00;;;;;;5080070;28;19912;-36
2023/07/27 00:59:23;;;;;;;;;;;24.50;58.10;;;;;;5080642;28;20002;-35
2023/07/27 01:01:49;;;;;;;;;;;24.50;58.30;;;;;;5078051;28;20364;-36
2023/07/27 01:04:15;;;;;;;;;;;24.50;58.80;;;;;;5079334;28;19908;-35
2023/07/27 01:06:41;;;;;;;;;;;24.50;58.60;;;;;;5081038;28;19919;-35
2023/07/27 01:09:07;;;;;;;;;;;24.50;58.30;;;;;;5078951;28;19926;-36
2023/07/27 01:11:59;;;;;;;;;;;24.40;58.30;;;;;;5079651;28;19920;-35
2023/07/27 01:14:29;;;;;;;;;;;24.40;58.30;;;;;;5077558;28;20151;-36
2023/07/27 01:17:05;;;;;;;;;;;24.40;58.40;;;;;;5077019;28;19934;-36
2023/07/27 01:19:31;;;;;;;;;;;24.40;59.10;;;;;;5081109;28;19908;-35
2023/07/27 01:22:17;;;;;;;;;;;24.30;58.40;;;;;;5080341;28;19912;-36
2023/07/27 01:24:43;;;;;;;;;;;24.30;58.30;;;;;;5036940;28;19931;-35
2023/07/27 01:27:28;;;;;;;;;;;24.30;58.40;;;;;;5080577;28;19916;-35
2023/07/27 01:29:58;;;;;;;;;;;24.30;58.10;;;;;;5077683;28;19923;-36
2023/07/27 01:32:24;;;;;;;;;;;24.20;58.20;;;;;;5063107;28;19971;-36
2023/07/27 01:34:51;;;;;;;;;;;24.20;58.10;;;;;;5078284;28;19955;-35
2023/07/27 01:37:17;;;;;;;;;;;24.20;58.10;;;;;;5059358;28;19952;-40
2023/07/27 01:39:43;;;;;;;;;;;24.20;58.20;;;;;;5055821;28;19935;-36
2023/07/27 01:42:11;;;;;;;;;;;24.10;58.20;;;;;;5066785;28;19951;-36
2023/07/27 01:44:36;;;;;;;;;;;24.10;58.40;;;;;;5084192;28;20814;-35
2023/07/27 01:47:02;;;;;;;;;;;24.10;58.40;;;;;;5085277;28;19931;-36
2023/07/27 01:49:28;;;;;;;;;;;24.10;61.20;;;;;;5085430;28;19909;-35
2023/07/27 01:51:54;;;;;;;;;;;24.00;63.20;;;;;;5083542;28;20002;-35
2023/07/27 01:54:20;;;;;;;;;;;24.00;64.20;;;;;;5080885;28;19912;-35
2023/07/27 01:56:46;;;;;;;;;;;24.00;64.90;;;;;;5061488;28;19924;-35
2023/07/27 01:59:12;;;;;;;;;;;24.00;65.20;;;;;;5064104;28;19913;-37
2023/07/27 02:01:37;;;;;;;;;;;24.00;65.30;;;;;;5058811;28;20646;-35
2023/07/27 02:04:04;;;;;;;;;;;24.00;65.60;;;;;;5082802;28;19908;-35
2023/07/27 02:06:30;;;;;;;;;;;24.00;65.70;;;;;;5083468;28;19983;-35
2023/07/27 02:08:55;;;;;;;;;;;24.10;65.90;;;;;;5084759;28;19938;-35
2023/07/27 02:11:21;;;;;;;;;;;24.10;65.90;;;;;;5083605;28;19927;-37
2023/07/27 02:13:51;;;;;;;;;;;24.10;66.00;;;;;;5083306;28;20406;-35
2023/07/27 02:16:20;;;;;;;;;;;24.10;66.10;;;;;;5065786;28;19916;-35
2023/07/27 02:18:45;;;;;;;;;;;24.10;66.10;;;;;;5084705;28;19912;-36
2023/07/27 02:21:11;;;;;;;;;;;24.10;66.10;;;;;;5083829;28;19966;-35
2023/07/27 02:23:37;;;;;;;;;;;24.20;66.30;;;;;;5074828;28;19912;-36
2023/07/27 02:26:03;;;;;;;;;;;24.20;66.30;;;;;;5084186;28;19912;-35
2023/07/27 02:28:29;;;;;;;;;;;24.20;66.30;;;;;;5083703;28;19919;-35
2023/07/27 02:30:55;;;;;;;;;;;24.20;66.40;;;;;;5084372;28;20299;-35
2023/07/27 02:33:41;;;;;;;;;;;24.20;66.40;;;;;;5011934;28;19976;-35
2023/07/27 02:36:07;;;;;;;;;;;24.30;66.50;;;;;;5005482;28;19941;-36
2023/07/27 02:38:33;;;;;;;;;;;24.30;66.50;;;;;;5007919;28;19920;-35
2023/07/27 02:40:59;;;;;;;;;;;24.30;66.60;;;;;;5005569;28;19985;-36
2023/07/27 02:43:25;;;;;;;;;;;24.30;66.60;;;;;;5009321;28;19920;-36
2023/07/27 02:45:52;;;;;;;;;;;24.30;66.60;;;;;;5012734;28;19944;-36
2023/07/27 02:48:18;;;;;;;;;;;24.30;66.60;;;;;;4994073;28;19957;-35
2023/07/27 02:50:50;;;;;;;;;;;24.30;66.70;;;;;;5008615;28;19968;-36
2023/07/27 02:53:16;;;;;;;;;;;24.40;66.80;;;;;;5009970;28;19921;-36
2023/07/27 02:55:42;;;;;;;;;;;24.40;66.90;;;;;;5016474;28;19913;-36
2023/07/27 02:58:08;;;;;;;;;;;24.40;66.90;;;;;;5001440;28;19957;-35
2023/07/27 03:00:34;;;;;;;;;;;24.40;66.90;;;;;;5009226;28;19914;-35
2023/07/27 03:03:02;;;;;;;;;;;24.50;67.00;;;;;;5005015;28;19914;-38
2023/07/27 03:05:28;;;;;;;;;;;24.50;67.00;;;;;;5003236;28;19914;-36
2023/07/27 03:07:54;;;;;;;;;;;24.50;67.10;;;;;;5007727;28;19937;-35
2023/07/27 03:10:20;;;;;;;;;;;24.50;67.00;;;;;;5026802;28;19924;-35
2023/07/27 03:12:46;;;;;;;;;;;24.50;67.10;;;;;;5082488;28;19979;-36
2023/07/27 03:15:12;;;;;;;;;;;24.50;67.10;;;;;;5083522;28;19908;-36
2023/07/27 03:17:37;;;;;;;;;;;24.50;67.10;;;;;;5078435;28;19913;-35
2023/07/27 03:20:04;;;;;;;;;;;24.50;67.20;;;;;;5081178;28;19908;-36
2023/07/27 03:22:30;;;;;;;;;;;24.50;68.00;;;;;;5082815;28;19930;-35
2023/07/27 03:24:56;;;;;;;;;;;24.50;67.30;;;;;;5065656;28;19972;-36
2023/07/27 03:27:22;;;;;;;;;;;24.50;67.30;;;;;;5080451;28;19948;-36
2023/07/27 03:29:47;;;;;;;;;;;24.60;67.30;;;;;;5083197;28;19912;-36
2023/07/27 03:32:13;;;;;;;;;;;24.60;67.40;;;;;;5078734;28;19908;-35
2023/07/27 03:34:39;;;;;;;;;;;24.60;67.60;;;;;;5082841;28;19934;-35
2023/07/27 03:37:05;;;;;;;;;;;24.60;67.50;;;;;;5082258;28;20379;-36
2023/07/27 03:39:31;;;;;;;;;;;24.60;67.60;;;;;;5076350;28;19913;-36
2023/07/27 03:41:57;;;;;;;;;;;24.60;67.60;;;;;;5083178;28;19947;-35
2023/07/27 03:44:23;;;;;;;;;;;24.60;67.70;;;;;;5082507;28;20631;-35
2023/07/27 03:46:48;;;;;;;;;;;24.60;67.70;;;;;;5082243;28;20539;-35
2023/07/27 03:49:14;;;;;;;;;;;24.60;67.70;;;;;;5082760;28;19908;-35
2023/07/27 03:51:40;;;;;;;;;;;24.60;67.80;;;;;;5082601;28;19921;-36
2023/07/27 03:54:06;;;;;;;;;;;24.60;67.80;;;;;;5082663;28;19969;-35
2023/07/27 03:56:32;;;;;;;;;;;24.60;67.80;;;;;;5081118;28;19915;-35
2023/07/27 03:58:58;;;;;;;;;;;24.60;68.00;;;;;;5077471;28;19936;-35
2023/07/27 04:01:24;;;;;;;;;;;24.60;67.90;;;;;;5074288;28;19909;-35
2023/07/27 04:03:49;;;;;;;;;;;24.60;68.00;;;;;;5081784;28;19927;-36
2023/07/27 04:06:15;;;;;;;;;;;24.60;68.00;;;;;;5082532;28;19912;-35
2023/07/27 04:08:41;;;;;;;;;;;24.60;68.10;;;;;;5081955;28;19922;-36
2023/07/27 04:11:09;;;;;;;;;;;24.60;68.20;;;;;;5082208;28;19931;-35
2023/07/27 04:13:37;;;;;;;;;;;24.60;68.20;;;;;;5081921;28;19908;-35
2023/07/27 04:16:04;;;;;;;;;;;24.60;68.20;;;;;;5081669;28;20376;-36
2023/07/27 04:18:30;;;;;;;;;;;24.60;68.30;;;;;;5081725;28;19912;-36
2023/07/27 04:20:56;;;;;;;;;;;24.60;68.30;;;;;;5082173;28;20067;-35
2023/07/27 04:23:21;;;;;;;;;;;24.70;68.40;;;;;;5081665;28;19920;-36
2023/07/27 04:25:47;;;;;;;;;;;24.70;68.40;;;;;;5082329;28;19919;-36
2023/07/27 04:28:13;;;;;;;;;;;24.70;68.40;;;;;;5082002;28;19934;-36
2023/07/27 04:30:40;;;;;;;;;;;24.70;68.50;;;;;;5082357;28;20448;-35
2023/07/27 04:33:06;;;;;;;;;;;24.60;68.50;;;;;;5077675;28;19919;-36
2023/07/27 04:35:32;;;;;;;;;;;24.70;68.50;;;;;;5081630;28;19912;-35
2023/07/27 04:37:58;;;;;;;;;;;24.70;69.00;;;;;;5075712;28;19909;-35
2023/07/27 04:40:24;;;;;;;;;;;24.70;68.60;;;;;;5082559;28;19912;-36
2023/07/27 04:42:50;;;;;;;;;;;24.70;68.60;;;;;;5082165;28;19912;-35
2023/07/27 04:45:16;;;;;;;;;;;24.70;68.70;;;;;;5076178;28;19915;-35
2023/07/27 04:47:41;;;;;;;;;;;24.70;68.70;;;;;;5082137;28;20394;-35
2023/07/27 04:50:07;;;;;;;;;;;24.70;68.70;;;;;;5081777;28;19927;-36
2023/07/27 04:52:33;;;;;;;;;;;24.70;68.80;;;;;;5079372;28;19912;-36
2023/07/27 04:54:59;;;;;;;;;;;24.70;68.80;;;;;;5082347;28;19934;-35
2023/07/27 04:57:25;;;;;;;;;;;24.70;68.90;;;;;;5080894;28;19913;-35
2023/07/27 04:59:51;;;;;;;;;;;24.70;69.10;;;;;;5081839;28;19909;-36
2023/07/27 05:02:17;;;;;;;;;;;24.70;68.90;;;;;;5081645;28;19919;-36
2023/07/27 05:04:43;;;;;;;;;;;24.70;69.00;;;;;;5081735;28;19942;-36
2023/07/27 05:07:09;;;;;;;;;;;24.70;69.00;;;;;;5074118;28;19928;-35
2023/07/27 05:09:35;;;;;;;;;;;24.70;69.00;;;;;;5079833;28;19922;-35
2023/07/27 05:12:00;;;;;;;;;;;24.70;69.10;;;;;;5081026;28;19920;-35
2023/07/27 05:14:26;;;;;;;;;;;24.70;69.20;;;;;;5082376;28;20289;-35
2023/07/27 05:16:52;;;;;;;;;;;24.70;69.20;;;;;;5083616;28;19908;-36
2023/07/27 05:19:18;;;;;;;;;;;24.70;69.20;;;;;;5081789;28;19912;-35
2023/07/27 05:21:44;;;;;;;;;;;24.70;69.30;;;;;;5081700;28;19970;-36
2023/07/27 05:24:10;;;;;;;;;;;24.70;69.30;;;;;;5081514;28;19912;-35
2023/07/27 05:26:35;;;;;;;;;;;24.70;69.40;;;;;;5085048;28;19919;-35
2023/07/27 05:29:01;;;;;;;;;;;24.70;69.40;;;;;;5085520;28;19975;-36
2023/07/27 05:31:27;;;;;;;;;;;24.70;69.50;;;;;;5084744;28;19920;-36
2023/07/27 05:33:53;;;;;;;;;;;24.70;69.50;;;;;;5080164;28;19968;-35
2023/07/27 05:36:19;;;;;;;;;;;24.60;69.50;;;;;;5085076;28;20010;-35
2023/07/27 05:38:45;;;;;;;;;;;24.70;69.50;;;;;;5084681;28;19923;-35
2023/07/27 05:41:11;;;;;;;;;;;24.70;69.60;;;;;;5085323;28;19919;-36
2023/07/27 05:43:36;;;;;;;;;;;24.60;69.50;;;;;;5085058;28;19923;-35
2023/07/27 05:46:02;;;;;;;;;;;24.70;69.60;;;;;;5083442;28;19913;-40
2023/07/27 05:48:30;;;;;;;;;;;24.60;69.60;;;;;;5084594;28;19913;-35
2023/07/27 05:50:56;;;;;;;;;;;24.60;69.60;;;;;;5084087;28;19920;-35
2023/07/27 05:53:21;;;;;;;;;;;24.70;69.60;;;;;;5084935;28;19918;-35
2023/07/27 05:55:47;;;;;;;;;;;24.60;69.60;;;;;;5085428;28;19982;-35
2023/07/27 05:58:14;;;;;;;;;;;24.70;69.70;;;;;;5084886;28;19919;-35
2023/07/27 06:00:40;;;;;;;;;;;24.60;69.60;;;;;;5084441;28;20433;-35
2023/07/27 06:03:05;;;;;;;;;;;24.60;69.70;;;;;;5080712;28;19912;-35
2023/07/27 06:05:31;;;;;;;;;;;24.60;69.70;;;;;;5081009;28;19931;-35
2023/07/27 06:07:57;;;;;;;;;;;24.60;69.70;;;;;;5080368;28;19959;-35
2023/07/27 06:10:23;;;;;;;;;;;24.60;69.70;;;;;;5083863;28;19920;-35
2023/07/27 06:12:49;;;;;;;;;;;24.60;69.80;;;;;;5084784;28;19912;-35
2023/07/27 06:15:15;;;;;;;;;;;24.60;69.80;;;;;;5085230;28;19912;-35
2023/07/27 06:17:41;;;;;;;;;;;24.60;69.80;;;;;;5084067;28;19912;-35
2023/07/27 06:20:08;;;;;;;;;;;24.60;69.80;;;;;;5084559;28;20048;-35
2023/07/27 06:22:34;;;;;;;;;;;24.60;69.80;;;;;;5084344;28;19977;-35
2023/07/27 06:25:00;;;;;;;;;;;24.60;69.80;;;;;;5084470;28;19912;-35
2023/07/27 06:27:26;;;;;;;;;;;24.60;69.80;;;;;;5083618;28;19909;-35
2023/07/27 06:29:52;;;;;;;;;;;24.60;69.90;;;;;;5083807;28;19919;-36
2023/07/27 06:32:18;;;;;;;;;;;24.60;69.90;;;;;;5084422;28;20435;-35
2023/07/27 06:34:44;;;;;;;;;;;24.60;69.70;;;;;;5084591;28;19912;-35
2023/07/27 06:37:10;;;;;;;;;;;24.60;69.80;;;;;;5080756;28;19920;-36
2023/07/27 06:39:36;;;;;;;;;;;24.60;69.70;;;;;;5082687;28;19946;-35
2023/07/27 06:42:01;;;;;;;;;;;24.60;69.80;;;;;;5066228;28;19931;-36
2023/07/27 06:44:27;;;;;;;;;;;24.60;69.80;;;;;;5084417;28;19908;-35
2023/07/27 06:46:53;;;;;;;;;;;24.50;69.60;;;;;;5076610;28;19919;-36
2023/07/27 06:49:19;;;;;;;;;;;24.60;69.90;;;;;;5081441;28;19912;-36
2023/07/27 06:51:46;;;;;;;;;;;24.60;69.80;;;;;;5083043;28;19926;-37
2023/07/27 06:54:12;;;;;;;;;;;24.60;69.80;;;;;;5083224;28;19912;-36
2023/07/27 06:56:38;;;;;;;;;;;24.50;69.60;;;;;;5082867;28;19999;-35
2023/07/27 06:59:04;;;;;;;;;;;24.50;69.80;;;;;;5083769;28;19938;-35
2023/07/27 07:01:30;;;;;;;;;;;24.50;69.80;;;;;;5080734;28;19912;-35
2023/07/27 07:03:56;;;;;;;;;;;24.50;69.80;;;;;;5078531;28;19972;-35
2023/07/27 07:06:21;;;;;;;;;;;24.50;69.90;;;;;;5082467;28;19972;-35
2023/07/27 07:08:47;;;;;;;;;;;24.50;69.90;;;;;;5078942;28;19920;-35
2023/07/27 07:11:13;;;;;;;;;;;24.50;69.90;;;;;;5082650;28;19991;-35
2023/07/27 07:13:39;;;;;;;;;;;24.50;69.90;;;;;;5082853;28;19983;-35
2023/07/27 07:16:05;;;;;;;;;;;24.50;69.90;;;;;;5083632;28;19959;-35
2023/07/27 07:18:31;;;;;;;;;;;24.50;69.90;;;;;;5082548;28;19942;-36
2023/07/27 07:20:57;;;;;;;;;;;24.50;70.00;;;;;;5082154;28;20365;-35
2023/07/27 07:23:23;;;;;;;;;;;24.50;70.00;;;;;;5081756;28;19912;-35
2023/07/27 07:25:49;;;;;;;;;;;24.50;69.90;;;;;;5082970;28;19919;-35
2023/07/27 07:28:14;;;;;;;;;;;24.50;69.90;;;;;;5082993;28;19919;-35
2023/07/27 07:30:41;;;;;;;;;;;24.50;70.00;;;;;;5083013;28;19923;-35
2023/07/27 07:33:08;;;;;;;;;;;24.50;70.10;;;;;;5082898;28;19916;-36
2023/07/27 07:35:38;;;;;;;;;;;24.50;70.00;;;;;;5083085;28;19912;-35
2023/07/27 07:38:05;;;;;;;;;;;24.50;70.10;;;;;;5082257;28;19919;-35
2023/07/27 07:40:31;;;;;;;;;;;24.50;70.10;;;;;;5081780;28;20399;-35
2023/07/27 07:42:57;;;;;;;;;;;24.50;70.10;;;;;;5082505;28;20372;-35
2023/07/27 07:45:23;;;;;;;;;;;24.50;70.10;;;;;;5083053;28;19935;-35
2023/07/27 07:47:48;;;;;;;;;;;24.50;70.10;;;;;;5083306;28;19912;-35
2023/07/27 07:50:14;;;;;;;;;;;24.50;70.20;;;;;;5081562;28;19951;-35
2023/07/27 07:52:40;;;;;;;;;;;24.40;70.10;;;;;;5082332;28;19919;-35
2023/07/27 07:55:07;;;;;;;;;;;24.50;70.10;;;;;;5082702;28;19912;-35
2023/07/27 07:57:33;;;;;;;;;;;24.50;70.20;;;;;;5082537;28;19916;-35
2023/07/27 07:59:58;;;;;;;;;;;24.40;70.10;;;;;;5082873;28;19919;-35
2023/07/27 08:02:24;;;;;;;;;;;24.40;70.80;;;;;;5076297;28;19956;-34
2023/07/27 08:04:50;;;;;;;;;;;24.40;70.10;;;;;;5074939;28;19999;-35
2023/07/27 08:07:16;;;;;;;;;;;24.40;70.10;;;;;;5077939;28;19924;-36
2023/07/27 08:09:42;;;;;;;;;;;24.40;70.10;;;;;;5080324;28;19932;-35
2023/07/27 08:12:08;;;;;;;;;;;24.40;70.00;;;;;;5081746;28;19928;-35
2023/07/27 08:14:34;;;;;;;;;;;24.40;70.20;;;;;;5082422;28;19913;-35
2023/07/27 08:16:59;;;;;;;;;;;24.40;70.20;;;;;;5082750;28;20426;-35
2023/07/27 08:19:25;;;;;;;;;;;24.40;70.20;;;;;;5082537;28;19908;-35
2023/07/27 08:21:51;;;;;;;;;;;24.40;70.10;;;;;;5082342;28;19912;-35
2023/07/27 08:24:17;;;;;;;;;;;24.40;70.30;;;;;;5081732;28;19912;-35
2023/07/27 08:26:43;;;;;;;;;;;24.40;70.20;;;;;;5081213;28;20400;-36
2023/07/27 08:29:09;;;;;;;;;;;24.40;70.30;;;;;;5082612;28;19919;-35
2023/07/27 08:31:35;;;;;;;;;;;24.40;70.30;;;;;;5081686;28;19920;-35
2023/07/27 08:34:01;;;;;;;;;;;24.40;70.30;;;;;;5081626;28;19912;-35
2023/07/27 08:36:27;;;;;;;;;;;24.40;70.30;;;;;;5082170;28;20288;-35
2023/07/27 08:38:53;;;;;;;;;;;24.40;70.20;;;;;;5081333;28;19912;-35
2023/07/27 08:41:18;;;;;;;;;;;24.30;70.20;;;;;;5082039;28;19912;-35
2023/07/27 08:43:45;;;;;;;;;;;24.30;70.30;;;;;;5080459;28;19912;-35
2023/07/27 08:46:11;;;;;;;;;;;24.30;70.30;;;;;;5080030;28;19908;-38
2023/07/27 08:48:37;;;;;;;;;;;24.30;70.20;;;;;;5081998;28;19947;-35
2023/07/27 08:51:02;;;;;;;;;;;24.30;70.20;;;;;;5085250;28;19920;-35
2023/07/27 08:53:30;;;;;;;;;;;24.30;70.30;;;;;;5083773;28;19908;-35
2023/07/27 08:55:58;;;;;;;;;;;24.30;70.30;;;;;;5086554;28;19927;-35
2023/07/27 08:58:24;;;;;;;;;;;24.30;70.30;;;;;;5061356;28;19916;-36
2023/07/27 09:00:50;;;;;;;;;;;24.30;70.30;;;;;;5082820;28;19943;-35
2023/07/27 09:03:15;;;;;;;;;;;24.30;70.40;;;;;;5083847;28;19971;-35
2023/07/27 09:05:45;;;;;;;;;;;24.30;70.30;;;;;;5084417;28;19920;-35
2023/07/27 09:08:11;;;;;;;;;;;24.30;70.40;;;;;;5085994;28;19919;-35
2023/07/27 09:10:37;;;;;;;;;;;24.30;70.40;;;;;;5081363;28;19979;-35
2023/07/27 09:13:04;;;;;;;;;;;24.30;70.40;;;;;;5084678;28;19975;-35
2023/07/27 09:15:30;;;;;;;;;;;24.30;70.50;;;;;;5085598;28;20003;-35
2023/07/27 09:17:58;;;;;;;;;;;24.30;70.40;;;;;;5085575;28;19931;-35
2023/07/27 09:20:24;;;;;;;;;;;24.30;70.50;;;;;;5085490;28;19912;-35
2023/07/27 09:22:50;;;;;;;;;;;24.30;70.40;;;;;;5081389;28;19917;-35
2023/07/27 09:25:20;;;;;;;;;;;24.30;70.50;;;;;;5086234;28;20139;-35
2023/07/27 09:27:46;;;;;;;;;;;24.30;70.60;;;;;;5085097;28;19912;-35
2023/07/27 09:30:12;;;;;;;;;;;24.20;70.50;;;;;;5084867;28;19997;-39
2023/07/27 09:32:38;;;;;;;;;;;24.20;70.50;;;;;;5082412;28;19917;-35
2023/07/27 09:35:04;;;;;;;;;;;24.20;70.40;;;;;;5085698;28;19919;-35
2023/07/27 09:37:30;;;;;;;;;;;24.20;70.50;;;;;;5080869;28;19920;-35
2023/07/27 09:40:08;;;;;;;;;;;24.20;70.70;;;;;;5076752;28;19913;-35
2023/07/27 09:42:33;;;;;;;;;;;24.20;70.90;;;;;;5080267;28;19912;-35
2023/07/27 09:44:59;;;;;;;;;;;24.20;71.10;;;;;;5084497;28;19920;-35
2023/07/27 09:47:30;;;;;;;;;;;24.20;71.10;;;;;;5084287;28;19912;-35
2023/07/27 09:50:00;;;;;;;;;;;24.20;71.90;;;;;;5085669;28;19957;-35
2023/07/27 09:52:27;;;;;;;;;;;24.20;71.10;;;;;;5084034;28;19943;-35
2023/07/27 09:54:54;;;;;;;;;;;24.20;71.60;;;;;;5085243;28;19919;-35
2023/07/27 09:57:20;;;;;;;;;;;24.20;71.50;;;;;;5084849;28;19912;-35
2023/07/27 09:59:46;;;;;;;;;;;24.10;71.40;;;;;;5080240;28;19919;-35
2023/07/27 10:02:13;;;;;;;;;;;24.10;71.60;;;;;;5077124;28;19912;-36
2023/07/27 10:04:39;;;;;;;;;;;24.10;71.70;;;;;;5065816;28;19912;-35
2023/07/27 10:07:05;;;;;;;;;;;24.10;71.60;;;;;;5082346;28;19978;-35
2023/07/27 10:09:31;;;;;;;;;;;24.10;71.80;;;;;;5063167;28;19928;-35
2023/07/27 10:11:59;;;;;;;;;;;24.10;71.70;;;;;;5084737;28;20019;-35
2023/07/27 10:14:28;;;;;;;;;;;24.10;71.80;;;;;;5084851;28;19957;-36
2023/07/27 10:16:58;;;;;;;;;;;24.10;71.90;;;;;;5078606;28;19912;-35
2023/07/27 10:19:24;;;;;;;;;;;24.10;71.90;;;;;;5084335;28;19908;-35
2023/07/27 10:21:51;;;;;;;;;;;24.10;72.00;;;;;;5077472;28;19934;-35
2023/07/27 10:24:23;;;;;;;;;;;24.10;72.00;;;;;;5084481;28;19908;-35
2023/07/27 10:26:52;;;;;;;;;;;24.10;72.00;;;;;;5084289;28;19913;-35
2023/07/27 10:29:18;;;;;;;;;;;24.10;72.10;;;;;;5084100;28;20523;-35
2023/07/27 10:31:44;;;;;;;;;;;24.10;72.10;;;;;;5084312;28;19952;-35
2023/07/27 10:34:17;;;;;;;;;;;24.10;72.10;;;;;;5063101;28;19915;-35
2023/07/27 10:36:52;;;;;;;;;;;24.10;72.10;;;;;;5084214;28;19912;-35
2023/07/27 10:39:22;;;;;;;;;;;24.10;72.10;;;;;;5081075;28;19904;-35
2023/07/27 10:42:05;;;;;;;;;;;24.10;72.10;;;;;;5084027;28;19942;-35
2023/07/27 10:44:43;;;;;;;;;;;24.10;72.10;;;;;;5083883;28;19998;-35
2023/07/27 10:47:09;;;;;;;;;;;24.00;72.00;;;;;;5081840;28;20396;-35
2023/07/27 10:49:42;;;;;;;;;;;24.00;72.00;;;;;;5082656;28;19909;-35
2023/07/27 10:52:08;;;;;;;;;;;24.00;71.90;;;;;;5083827;28;19920;-35
2023/07/27 10:54:39;;;;;;;;;;;24.00;71.90;;;;;;5080934;28;19909;-35
2023/07/27 10:57:09;;;;;;;;;;;24.00;72.00;;;;;;5082773;28;19916;-35
2023/07/27 10:59:38;;;;;;;;;;;24.00;72.00;;;;;;5077048;28;19959;-35
2023/07/27 11:02:05;;;;;;;;;;;24.00;72.10;;;;;;5083198;28;19912;-35
2023/07/27 11:04:33;;;;;;;;;;;24.00;72.00;;;;;;5060246;28;19904;-35
2023/07/27 11:06:59;;;;;;;;;;;24.00;72.10;;;;;;5083221;28;19912;-35
2023/07/27 11:09:26;;;;;;;;;;;24.00;72.00;;;;;;5082343;28;19970;-35
2023/07/27 11:11:52;;;;;;;;;;;24.00;72.10;;;;;;5083359;28;20395;-35
2023/07/27 11:14:18;;;;;;;;;;;24.00;72.20;;;;;;5065458;28;20388;-35
2023/07/27 11:16:44;;;;;;;;;;;24.00;72.10;;;;;;5083776;28;19912;-35
2023/07/27 11:19:10;;;;;;;;;;;24.00;72.10;;;;;;5083456;28;19908;-35
2023/07/27 11:21:37;;;;;;;;;;;24.00;72.20;;;;;;5083333;28;19919;-35
2023/07/27 11:24:03;;;;;;;;;;;24.00;72.10;;;;;;5082912;28;19919;-35
2023/07/27 11:26:29;;;;;;;;;;;24.00;72.10;;;;;;5083025;28;19980;-35
2023/07/27 11:28:55;;;;;;;;;;;24.00;71.80;;;;;;5083302;28;19958;-35
2023/07/27 11:31:22;;;;;;;;;;;24.00;71.80;;;;;;5065046;28;19912;-35
2023/07/27 11:33:48;;;;;;;;;;;24.00;71.90;;;;;;5080895;28;19919;-35
2023/07/27 11:36:14;;;;;;;;;;;24.00;71.90;;;;;;5081284;28;19908;-35
2023/07/27 11:38:41;;;;;;;;;;;24.00;71.90;;;;;;5081605;28;19939;-35
2023/07/27 11:41:07;;;;;;;;;;;23.90;72.10;;;;;;5082688;28;20702;-35
2023/07/27 11:43:33;;;;;;;;;;;23.90;72.00;;;;;;5082658;28;19999;-35
2023/07/27 11:46:00;;;;;;;;;;;23.90;72.10;;;;;;5083336;28;20604;-35
2023/07/27 11:48:27;;;;;;;;;;;23.90;72.00;;;;;;5082475;28;19908;-35
2023/07/27 11:50:59;;;;;;;;;;;23.90;72.10;;;;;;5083296;28;19947;-35
2023/07/27 11:53:26;;;;;;;;;;;23.90;72.10;;;;;;5082702;28;19944;-35
2023/07/27 11:55:52;;;;;;;;;;;23.90;72.20;;;;;;5075652;28;19908;-35
2023/07/27 11:58:18;;;;;;;;;;;23.90;72.10;;;;;;5081672;28;19951;-35
2023/07/27 12:00:49;;;;;;;;;;;23.90;72.10;;;;;;5083023;28;19920;-35
2023/07/27 12:03:16;;;;;;;;;;;23.90;72.30;;;;;;5081771;28;19908;-36
2023/07/27 12:05:42;;;;;;;;;;;23.90;72.30;;;;;;5082646;28;19938;-36
2023/07/27 12:08:08;;;;;;;;;;;23.90;72.30;;;;;;5079284;28;19908;-36
2023/07/27 12:10:34;;;;;;;;;;;23.90;72.30;;;;;;5082172;28;19987;-36
2023/07/27 12:13:00;;;;;;;;;;;23.90;72.30;;;;;;5082876;28;19909;-36
2023/07/27 12:15:30;;;;;;;;;;;23.90;72.30;;;;;;5079458;28;19913;-36
2023/07/27 12:17:56;;;;;;;;;;;23.80;72.20;;;;;;5082540;28;19935;-36
2023/07/27 12:20:23;;;;;;;;;;;23.80;72.30;;;;;;5082397;28;19912;-36
2023/07/27 12:22:49;;;;;;;;;;;23.80;72.30;;;;;;5082152;28;19909;-36
2023/07/27 12:25:15;;;;;;;;;;;23.80;72.20;;;;;;5082351;28;19912;-36
2023/07/27 12:27:41;;;;;;;;;;;23.80;72.20;;;;;;5081922;28;19908;-36
2023/07/27 12:30:07;;;;;;;;;;;23.80;72.30;;;;;;5082402;28;19919;-36
2023/07/27 12:32:33;;;;;;;;;;;23.80;72.30;;;;;;5082479;28;19917;-36
2023/07/27 12:34:59;;;;;;;;;;;23.80;72.20;;;;;;5082586;28;19980;-36
2023/07/27 12:37:45;;;;;;;;;;;23.80;72.10;;;;;;5019754;28;19909;-36
2023/07/27 12:40:12;;;;;;;;;;;23.80;72.00;;;;;;5020015;28;20121;-37
2023/07/27 12:42:38;;;;;;;;;;;23.80;72.00;;;;;;5019635;28;19967;-36
2023/07/27 12:45:04;;;;;;;;;;;23.80;72.00;;;;;;5020242;28;19913;-37
2023/07/27 12:47:30;;;;;;;;;;;23.80;71.90;;;;;;5019559;28;20019;-36
2023/07/27 12:49:56;;;;;;;;;;;23.80;71.90;;;;;;5019540;28;19913;-36
2023/07/27 12:52:22;;;;;;;;;;;23.80;72.00;;;;;;5019698;28;19925;-36
2023/07/27 12:54:48;;;;;;;;;;;23.80;72.10;;;;;;5019717;28;19913;-36
2023/07/27 12:57:14;;;;;;;;;;;23.80;72.30;;;;;;5023280;28;19979;-36
2023/07/27 12:59:43;;;;;;;;;;;23.80;72.30;;;;;;5019833;28;19913;-36
2023/07/27 13:02:09;;;;;;;;;;;23.80;72.40;;;;;;5020013;28;19977;-37
2023/07/27 13:04:35;;;;;;;;;;;23.80;72.40;;;;;;5019578;28;19909;-37
2023/07/27 13:07:01;;;;;;;;;;;23.80;72.50;;;;;;5013530;28;19955;-36
2023/07/27 13:09:27;;;;;;;;;;;23.80;73.30;;;;;;5017098;28;19925;-37
2023/07/27 13:11:53;;;;;;;;;;;23.80;72.60;;;;;;5019484;28;19924;-35
2023/07/27 13:14:21;;;;;;;;;;;23.80;72.80;;;;;;5031599;28;19913;-36
2023/07/27 13:16:47;;;;;;;;;;;23.90;72.90;;;;;;5074498;28;19938;-37
2023/07/27 13:19:13;;;;;;;;;;;23.80;73.00;;;;;;5081951;28;19908;-36
2023/07/27 13:21:39;;;;;;;;;;;23.90;73.10;;;;;;5081556;28;19920;-37
2023/07/27 13:24:05;;;;;;;;;;;23.90;73.10;;;;;;5082390;28;19908;-36
2023/07/27 13:26:31;;;;;;;;;;;23.90;73.20;;;;;;5079911;28;19915;-36
2023/07/27 13:28:57;;;;;;;;;;;23.90;73.20;;;;;;5080679;28;19912;-36
2023/07/27 13:31:23;;;;;;;;;;;23.90;73.40;;;;;;5078954;28;19917;-35
2023/07/27 13:33:50;;;;;;;;;;;23.90;73.40;;;;;;5082095;28;19912;-36
2023/07/27 13:36:16;;;;;;;;;;;24.00;73.40;;;;;;5084096;28;19927;-37
2023/07/27 13:38:42;;;;;;;;;;;24.00;73.40;;;;;;5084920;28;20754;-37
2023/07/27 13:41:08;;;;;;;;;;;24.00;73.40;;;;;;5085669;28;19908;-37
2023/07/27 13:43:33;;;;;;;;;;;24.00;73.40;;;;;;5084652;28;19920;-37
2023/07/27 13:45:59;;;;;;;;;;;24.00;73.40;;;;;;5085770;28;19919;-37
2023/07/27 13:48:25;;;;;;;;;;;24.00;73.50;;;;;;5085104;28;19918;-36
2023/07/27 13:50:54;;;;;;;;;;;24.00;73.50;;;;;;5078222;28;19939;-37
2023/07/27 13:53:21;;;;;;;;;;;24.00;73.60;;;;;;5085016;28;19904;-37
2023/07/27 13:55:49;;;;;;;;;;;24.00;73.70;;;;;;5078715;28;19920;-37
2023/07/27 13:58:18;;;;;;;;;;;24.10;73.80;;;;;;5085365;28;19917;-37
2023/07/27 14:00:43;;;;;;;;;;;24.10;73.90;;;;;;5081693;28;19919;-38
2023/07/27 14:03:09;;;;;;;;;;;24.10;74.10;;;;;;5085189;28;19908;-36
2023/07/27 14:05:35;;;;;;;;;;;24.10;74.20;;;;;;5084935;28;19979;-36
2023/07/27 14:08:02;;;;;;;;;;;24.10;74.30;;;;;;5081006;28;19968;-37
2023/07/27 14:10:27;;;;;;;;;;;24.20;74.50;;;;;;5084379;28;20045;-37
2023/07/27 14:12:56;;;;;;;;;;;24.20;74.60;;;;;;5085259;28;20503;-37